Time;durP1;ratioP1;P1;durP2;ratioP2;P2;SDS_P1;SDS_P2;PMS_P1;PMS_P2;Temp;Humidity;BMP_temperature;BMP_pressure;BME280_temperature;BME280_humidity;BME280_pressure;Samples;Min_cycle;Max_cycle;Signal;HPM_P1;HPM_P2
2022/08/11 00:00:58;;;;;;;1.10;1.00;;;;;26.40;101154.00;;;;2087592;28;20451;-53
2022/08/11 00:01:58;;;;;;;1.23;1.13;;;;;26.40;101159.00;;;;2087336;28;20458;-53
2022/08/11 00:03:02;;;;;;;1.30;1.20;;;;;26.40;101161.00;;;;2086283;28;20278;-53
2022/08/11 00:04:03;;;;;;;1.40;1.20;;;;;26.40;101164.00;;;;2079752;28;20293;-53
2022/08/11 00:05:14;;;;;;;1.20;1.10;;;;;26.40;101159.00;;;;2087417;28;20903;-53
2022/08/11 00:06:22;;;;;;;2.10;1.30;;;;;26.40;101157.00;;;;2087201;28;20447;-53
2022/08/11 00:07:23;;;;;;;1.40;1.30;;;;;26.40;101159.00;;;;2086395;28;20462;-53
2022/08/11 00:08:25;;;;;;;1.53;1.40;;;;;26.40;101160.00;;;;2087493;28;20514;-53
2022/08/11 00:09:31;;;;;;;1.63;1.38;;;;;26.40;101161.00;;;;2087350;28;20466;-53
2022/08/11 00:10:31;;;;;;;2.00;1.60;;;;;26.40;101159.00;;;;2087477;28;20697;-53
2022/08/11 00:11:41;;;;;;;1.40;1.30;;;;;26.40;101165.00;;;;2087210;28;20444;-53
2022/08/11 00:12:42;;;;;;;1.73;1.20;;;;;26.40;101156.00;;;;2087264;28;20278;-53
2022/08/11 00:13:44;;;;;;;1.73;1.37;;;;;26.40;101162.00;;;;2078258;28;20973;-55
2022/08/11 00:14:45;;;;;;;1.60;1.50;;;;;26.40;101152.00;;;;2079190;28;20224;-53
2022/08/11 00:15:45;;;;;;;1.40;1.30;;;;;26.40;101161.00;;;;2079049;28;20456;-53
2022/08/11 00:16:59;;;;;;;1.50;1.30;;;;;26.40;101163.00;;;;2070979;28;20253;-52
2022/08/11 00:17:59;;;;;;;1.70;1.60;;;;;26.40;101156.00;;;;2070571;28;20284;-53
2022/08/11 00:19:00;;;;;;;1.47;1.33;;;;;26.40;101152.00;;;;2078935;28;20562;-53
2022/08/11 00:20:11;;;;;;;1.30;1.20;;;;;26.40;101143.00;;;;2078970;28;20214;-53
2022/08/11 00:21:12;;;;;;;1.30;1.00;;;;;26.40;101157.00;;;;2064391;28;20472;-53
2022/08/11 00:22:19;;;;;;;1.50;1.13;;;;;26.40;101159.00;;;;2071003;28;20965;-53
2022/08/11 00:23:19;;;;;;;1.30;1.20;;;;;26.40;101164.00;;;;2079044;28;20245;-53
2022/08/11 00:24:20;;;;;;;1.90;1.37;;;;;26.40;101158.00;;;;2079199;28;20475;-53
2022/08/11 00:25:20;;;;;;;1.43;1.33;;;;;26.40;101155.00;;;;2078895;28;20271;-53
2022/08/11 00:26:21;;;;;;;1.30;1.20;;;;;26.40;101154.00;;;;2079127;28;20213;-53
2022/08/11 00:27:34;;;;;;;1.30;1.20;;;;;26.40;101163.00;;;;2078374;28;20821;-53
2022/08/11 00:28:34;;;;;;;1.30;1.10;;;;;26.40;101153.00;;;;2084246;28;21917;-53
2022/08/11 00:29:35;;;;;;;1.50;1.40;;;;;26.40;101165.00;;;;2087061;28;20537;-53
2022/08/11 00:30:38;;;;;;;1.33;1.20;;;;;26.40;101157.00;;;;2087061;28;20209;-53
2022/08/11 00:31:43;;;;;;;1.30;1.17;;;;;26.40;101163.00;;;;2074858;28;20245;-52
2022/08/11 00:32:52;;;;;;;1.40;1.30;;;;;26.40;101160.00;;;;2079118;28;20449;-53
2022/08/11 00:33:53;;;;;;;1.40;1.30;;;;;26.40;101176.00;;;;2079718;28;20879;-53
2022/08/11 00:34:53;;;;;;;2.20;1.70;;;;;26.40;101160.00;;;;2079120;28;20449;-53
2022/08/11 00:35:56;;;;;;;1.20;1.10;;;;;26.40;101162.00;;;;2078817;28;20224;-53
2022/08/11 00:36:59;;;;;;;1.47;1.37;;;;;26.40;101156.00;;;;2078984;28;20603;-52
2022/08/11 00:37:59;;;;;;;1.53;1.43;;;;;26.40;101157.00;;;;2082709;28;20509;-53
2022/08/11 00:39:03;;;;;;;1.53;1.43;;;;;26.40;101160.00;;;;2078954;28;20517;-53
2022/08/11 00:40:05;;;;;;;1.20;1.10;;;;;26.40;101161.00;;;;2087453;28;20217;-53
2022/08/11 00:41:21;;;;;;;1.40;1.17;;;;;26.40;101160.00;;;;2079054;28;20456;-53
2022/08/11 00:42:52;;;;;;;1.40;1.30;;;;;26.40;101164.00;;;;2078964;28;20448;-53
2022/08/11 00:44:17;;;;;;;1.67;1.50;;;;;26.40;101157.00;;;;2081617;28;20963;-52
2022/08/11 00:45:32;;;;;;;1.30;1.20;;;;;26.40;101156.00;;;;2079199;28;20854;-56
2022/08/11 00:46:45;;;;;;;1.30;1.20;;;;;26.40;101164.00;;;;2066184;28;20500;-53
2022/08/11 00:48:06;;;;;;;1.47;1.37;;;;;26.40;101164.00;;;;2057483;28;20526;-53
2022/08/11 00:49:06;;;;;;;1.43;1.30;;;;;26.40;101168.00;;;;2072161;28;20455;-53
2022/08/11 00:50:40;;;;;;;1.53;1.33;;;;;26.40;101162.00;;;;2079073;28;20444;-53
2022/08/11 00:52:28;;;;;;;1.53;1.43;;;;;26.40;101164.00;;;;2078685;28;20224;-52
2022/08/11 00:53:46;;;;;;;1.17;1.03;;;;;26.40;101172.00;;;;2067836;28;20453;-53
2022/08/11 00:55:06;;;;;;;1.57;1.40;;;;;26.40;101164.00;;;;2066329;28;20547;-53
2022/08/11 00:56:40;;;;;;;1.70;1.47;;;;;26.40;101164.00;;;;2075991;28;20460;-53
2022/08/11 00:57:52;;;;;;;1.30;1.10;;;;;26.40;101167.00;;;;2078373;28;21113;-53
2022/08/11 00:59:05;;;;;;;1.50;1.40;;;;;26.40;101163.00;;;;2076243;28;20492;-53
2022/08/11 01:00:15;;;;;;;1.93;1.40;;;;;26.30;101162.00;;;;2063275;28;20982;-53
2022/08/11 01:01:15;;;;;;;1.50;1.20;;;;;26.40;101161.00;;;;2070916;28;20453;-53
2022/08/11 01:02:35;;;;;;;1.50;1.40;;;;;26.40;101164.00;;;;2071369;28;20933;-53
2022/08/11 01:04:06;;;;;;;1.40;1.30;;;;;26.40;101158.00;;;;2074868;28;20323;-53
2022/08/11 01:05:40;;;;;;;1.40;1.30;;;;;26.40;101158.00;;;;2074439;28;20452;-53
2022/08/11 01:06:51;;;;;;;1.40;1.30;;;;;26.30;101161.00;;;;2085823;28;20951;-53
2022/08/11 01:08:09;;;;;;;1.20;1.10;;;;;26.40;101165.00;;;;2076772;28;21093;-53
2022/08/11 01:09:28;;;;;;;1.40;1.30;;;;;26.40;101161.00;;;;2078201;28;20475;-53
2022/08/11 01:10:43;;;;;;;1.40;1.30;;;;;26.30;101163.00;;;;2087152;28;20448;-53
2022/08/11 01:12:13;;;;;;;1.67;1.20;;;;;26.30;101164.00;;;;2087814;28;20805;-53
2022/08/11 01:13:51;;;;;;;1.70;1.60;;;;;26.30;101156.00;;;;2086841;28;20463;-53
2022/08/11 01:15:19;;;;;;;1.40;1.30;;;;;26.30;101154.00;;;;2086672;28;20466;-53
2022/08/11 01:16:37;;;;;;;1.40;1.20;;;;;26.30;101164.00;;;;2085135;28;20979;-53
2022/08/11 01:18:16;;;;;;;1.50;1.40;;;;;26.30;101162.00;;;;2081697;28;20512;-53
2022/08/11 01:19:28;;;;;;;1.47;1.37;;;;;26.30;101159.00;;;;2074917;28;20445;-53
2022/08/11 01:20:47;;;;;;;1.63;1.20;;;;;26.30;101153.00;;;;2085315;28;20475;-53
2022/08/11 01:22:11;;;;;;;1.70;1.60;;;;;26.30;101156.00;;;;2087481;28;20855;-53
2022/08/11 01:23:24;;;;;;;1.27;1.13;;;;;26.30;101156.00;;;;2079001;28;20444;-53
2022/08/11 01:24:34;;;;;;;1.43;1.33;;;;;26.30;101156.00;;;;2082431;28;20452;-53
2022/08/11 01:25:41;;;;;;;1.30;1.20;;;;;26.30;101166.00;;;;2086553;28;20459;-53
2022/08/11 01:27:21;;;;;;;1.97;1.37;;;;;26.30;101164.00;;;;2079062;28;20445;-53
2022/08/11 01:29:05;;;;;;;1.47;1.37;;;;;26.30;101158.00;;;;2085649;28;20475;-53
2022/08/11 01:30:14;;;;;;;2.33;1.80;;;;;26.30;101158.00;;;;2079036;28;20452;-53
2022/08/11 01:31:28;;;;;;;1.43;1.33;;;;;26.30;101164.00;;;;2079297;28;20483;-53
2022/08/11 01:33:02;;;;;;;1.57;1.37;;;;;26.30;101158.00;;;;2083418;28;20455;-53
2022/08/11 01:34:08;;;;;;;1.70;1.60;;;;;26.30;101159.00;;;;2086894;28;20443;-53
2022/08/11 01:35:12;;;;;;;1.50;1.40;;;;;26.30;101163.00;;;;2086614;28;20447;-53
2022/08/11 01:36:35;;;;;;;1.50;1.40;;;;;26.30;101158.00;;;;2079432;28;20828;-53
2022/08/11 01:38:07;;;;;;;1.50;1.40;;;;;26.30;101159.00;;;;2079497;28;20464;-53
2022/08/11 01:39:12;;;;;;;1.50;1.40;;;;;26.30;101161.00;;;;2078723;28;20865;-53
2022/08/11 01:40:46;;;;;;;1.60;1.50;;;;;26.30;101015.00;;;;2073656;28;20460;-53
2022/08/11 01:45:47;;;;;;;1.30;1.20;;;;;26.30;100970.00;;;;2087352;28;20455;-53
2022/08/11 01:47:49;;;;;;;1.47;1.33;;;;;26.30;101191.00;;;;2086556;28;20443;-53
2022/08/11 01:48:48;;;;;;;1.43;1.33;;;;;26.30;101170.00;;;;2084122;28;20463;-54
2022/08/11 01:50:06;;;;;;;1.30;1.20;;;;;26.30;101160.00;;;;2082695;28;20609;-53
2022/08/11 01:51:32;;;;;;;1.87;1.53;;;;;26.30;101156.00;;;;2086577;28;20963;-53
2022/08/11 01:52:57;;;;;;;1.40;1.23;;;;;26.30;101158.00;;;;2087062;28;20948;-53
2022/08/11 01:54:02;;;;;;;1.43;1.33;;;;;26.30;101157.00;;;;2079608;28;20547;-58
2022/08/11 01:55:08;;;;;;;1.67;1.57;;;;;26.30;101164.00;;;;2078407;28;20450;-52
2022/08/11 01:56:29;;;;;;;1.70;1.60;;;;;26.30;101164.00;;;;2078609;28;20448;-53
2022/08/11 01:57:46;;;;;;;1.50;1.40;;;;;26.30;101167.00;;;;2084006;28;20452;-53
2022/08/11 01:58:59;;;;;;;1.67;1.40;;;;;26.30;101167.00;;;;2080733;28;20460;-53
2022/08/11 02:00:02;;;;;;;1.73;1.50;;;;;26.30;101165.00;;;;2079621;28;20452;-54
2022/08/11 02:01:05;;;;;;;1.20;1.10;;;;;26.30;101156.00;;;;2086507;28;20526;-53
2022/08/11 02:04:18;;;;;;;1.70;1.60;;;;;26.30;101158.00;;;;2086273;28;20247;-53
2022/08/11 02:05:44;;;;;;;1.50;1.40;;;;;26.30;101165.00;;;;2085259;28;21034;-53
2022/08/11 02:07:10;;;;;;;1.60;1.50;;;;;26.30;101174.00;;;;2087183;28;20851;-53
2022/08/11 02:08:48;;;;;;;1.42;1.33;;;;;26.30;101166.00;;;;2084664;28;20460;-53
2022/08/11 02:09:58;;;;;;;1.30;1.20;;;;;26.30;101172.00;;;;2086362;28;20221;-53
2022/08/11 02:11:29;;;;;;;1.33;1.23;;;;;26.30;101170.00;;;;2086452;28;20455;-53
2022/08/11 02:12:45;;;;;;;1.50;1.40;;;;;26.30;101166.00;;;;2086026;28;20459;-55
2022/08/11 02:13:51;;;;;;;1.60;1.50;;;;;26.30;101170.00;;;;2086734;28;20459;-53
2022/08/11 02:15:42;;;;;;;1.67;1.57;;;;;26.30;101164.00;;;;2087143;28;20447;-53
2022/08/11 02:16:54;;;;;;;1.70;1.60;;;;;26.30;101161.00;;;;2071586;28;20540;-53
2022/08/11 02:23:38;;;;;;;1.50;1.40;;;;;26.30;101165.00;;;;2068715;28;20222;-53
2022/08/11 02:24:30;;;;;;;1.60;1.50;;;;;26.30;101170.00;;;;2083298;28;20875;-54
2022/08/11 04:08:54;;;;;;;1.90;1.80;;;;;26.20;101155.00;;;;2082303;28;20527;-52
2022/08/11 04:10:27;;;;;;;1.70;1.60;;;;;26.20;101158.00;;;;2077798;28;20833;-52
2022/08/11 04:12:01;;;;;;;1.67;1.58;;;;;26.20;101156.00;;;;2083757;28;20447;-52
2022/08/11 04:13:43;;;;;;;1.60;1.50;;;;;26.20;101159.00;;;;2078109;28;20231;-52
2022/08/11 04:16:40;;;;;;;2.03;1.83;;;;;26.20;101158.00;;;;2085721;28;20827;-52
2022/08/11 04:17:56;;;;;;;2.23;1.77;;;;;26.20;101159.00;;;;2084907;28;20845;-53
2022/08/11 04:19:15;;;;;;;1.70;1.60;;;;;26.20;101152.00;;;;2086074;28;20936;-52
2022/08/11 04:20:22;;;;;;;1.63;1.53;;;;;26.20;101157.00;;;;2086677;28;20808;-52
2022/08/11 04:21:34;;;;;;;1.60;1.50;;;;;26.20;101159.00;;;;2077766;28;20793;-52
2022/08/11 04:22:44;;;;;;;1.93;1.43;;;;;26.20;101155.00;;;;2077816;28;20444;-52
2022/08/11 04:24:12;;;;;;;2.00;1.90;;;;;26.20;101152.00;;;;2077480;28;20452;-53
2022/08/11 04:25:33;;;;;;;2.00;1.80;;;;;25.40;101157.00;;;;2084612;28;20428;-54
2022/08/11 04:27:28;;;;;;;1.77;1.67;;;;;26.20;101155.00;;;;2087431;28;20439;-52
2022/08/11 04:29:12;;;;;;;1.70;1.60;;;;;26.20;101155.00;;;;2084630;28;20526;-53
2022/08/11 04:30:21;;;;;;;1.93;1.70;;;;;26.20;101153.00;;;;2061870;28;20449;-53
2022/08/11 04:31:46;;;;;;;2.37;1.70;;;;;26.20;101152.00;;;;2046874;28;20463;-53
2022/08/11 04:33:07;;;;;;;2.08;1.67;;;;;26.20;101144.00;;;;2061665;28;20492;-53
2022/08/11 04:34:23;;;;;;;1.83;1.73;;;;;26.20;101150.00;;;;2077319;28;20209;-53
2022/08/11 04:36:01;;;;;;;1.80;1.70;;;;;26.20;101148.00;;;;2078926;28;20448;-52
2022/08/11 04:38:41;;;;;;;1.87;1.63;;;;;26.20;101148.00;;;;2078953;28;20448;-52
2022/08/11 04:39:48;;;;;;;2.03;1.83;;;;;26.20;101145.00;;;;2078722;28;20447;-53
2022/08/11 04:41:13;;;;;;;1.87;1.77;;;;;26.20;101146.00;;;;2079270;28;20463;-52
2022/08/11 04:44:19;;;;;;;2.10;1.87;;;;;26.20;101152.00;;;;2078828;28;20447;-52
2022/08/11 04:45:33;;;;;;;2.10;1.90;;;;;26.20;101148.00;;;;2075578;28;20452;-53
2022/08/11 04:47:10;;;;;;;2.33;2.13;;;;;26.20;101150.00;;;;2065137;28;20297;-52
2022/08/11 05:01:42;;;;;;;2.37;2.17;;;;;26.20;101152.00;;;;2078703;28;20539;-53
2022/08/11 05:02:49;;;;;;;1.80;1.70;;;;;26.20;101148.00;;;;2078132;28;20498;-53
2022/08/11 05:06:05;;;;;;;1.87;1.67;;;;;26.20;101153.00;;;;2077949;28;20452;-53
2022/08/11 05:07:29;;;;;;;1.90;1.70;;;;;26.20;101151.00;;;;2079226;28;20464;-52
2022/08/11 05:08:50;;;;;;;1.73;1.63;;;;;26.20;101155.00;;;;2078511;28;20448;-53
2022/08/11 05:10:09;;;;;;;1.80;1.70;;;;;26.20;101157.00;;;;2078732;28;20452;-53
2022/08/11 05:11:27;;;;;;;2.17;1.30;;;;;26.20;101157.00;;;;2079389;28;20436;-53
2022/08/11 05:12:37;;;;;;;1.80;1.70;;;;;26.10;101166.00;;;;2079300;28;20456;-53
2022/08/11 05:34:52;;;;;;;1.95;1.70;;;;;26.20;101180.00;;;;2074337;28;20496;-53
2022/08/11 05:36:07;;;;;;;2.20;2.00;;;;;26.20;101167.00;;;;2076048;28;20198;-53
2022/08/11 05:37:22;;;;;;;1.73;1.63;;;;;26.20;101180.00;;;;2080373;28;20495;-53
2022/08/11 05:57:00;;;;;;;1.83;1.63;;;;;26.20;101169.00;;;;2081232;28;20459;-53
2022/08/11 05:58:02;;;;;;;1.80;1.67;;;;;26.20;101177.00;;;;2085851;28;20451;-53
2022/08/11 05:59:02;;;;;;;1.87;1.70;;;;;26.20;101172.00;;;;2087395;28;20946;-53
2022/08/11 06:00:09;;;;;;;2.03;1.93;;;;;26.20;101179.00;;;;2086770;28;20498;-53
2022/08/11 06:01:20;;;;;;;2.33;2.13;;;;;26.20;101176.00;;;;2079049;28;20335;-53
2022/08/11 06:02:20;;;;;;;1.83;1.73;;;;;26.20;101165.00;;;;2078025;28;20468;-53
2022/08/11 06:03:26;;;;;;;2.30;2.10;;;;;26.20;101165.00;;;;2078390;28;20484;-53
2022/08/11 06:04:27;;;;;;;1.90;1.70;;;;;26.20;101177.00;;;;2083917;28;20228;-53
2022/08/11 06:05:34;;;;;;;1.70;1.60;;;;;26.20;101175.00;;;;2083225;28;20987;-53
2022/08/11 06:06:34;;;;;;;2.10;2.00;;;;;26.20;101171.00;;;;2078295;28;20573;-52
2022/08/11 06:07:34;;;;;;;1.60;1.50;;;;;26.20;101170.00;;;;2078787;28;20494;-53
2022/08/11 06:08:35;;;;;;;2.10;1.90;;;;;26.20;101172.00;;;;2086593;28;20220;-53
2022/08/11 06:09:44;;;;;;;2.00;1.90;;;;;26.20;101179.00;;;;2086041;28;20304;-53
2022/08/11 06:10:45;;;;;;;2.10;1.90;;;;;26.20;101177.00;;;;2079412;28;20221;-52
2022/08/11 06:11:46;;;;;;;1.90;1.80;;;;;26.20;101173.00;;;;2086181;28;20800;-53
2022/08/11 06:12:51;;;;;;;1.90;1.77;;;;;26.20;101182.00;;;;2086021;28;20521;-52
2022/08/11 06:13:51;;;;;;;2.00;1.80;;;;;26.20;101176.00;;;;2086017;28;20297;-54
2022/08/11 06:14:56;;;;;;;2.17;1.97;;;;;26.20;101177.00;;;;2086388;28;20493;-54
2022/08/11 06:15:56;;;;;;;2.60;2.10;;;;;26.20;101170.00;;;;2086435;28;20268;-53
2022/08/11 06:16:58;;;;;;;1.80;1.70;;;;;26.20;101176.00;;;;2082246;28;20464;-53
2022/08/11 06:18:00;;;;;;;2.13;1.97;;;;;25.50;101176.00;;;;2069242;28;20224;-53
2022/08/11 06:19:00;;;;;;;1.97;1.87;;;;;26.20;101179.00;;;;2062075;28;20955;-53
2022/08/11 06:20:11;;;;;;;2.30;2.10;;;;;26.20;101176.00;;;;2060595;28;20501;-53
2022/08/11 06:21:11;;;;;;;1.87;1.77;;;;;26.20;101179.00;;;;2075844;28;20253;-53
2022/08/11 06:22:11;;;;;;;1.70;1.60;;;;;26.20;101176.00;;;;2069167;28;20548;-53
2022/08/11 06:23:14;;;;;;;2.03;1.83;;;;;26.20;101179.00;;;;2062546;28;20225;-53
2022/08/11 06:24:14;;;;;;;2.40;2.20;;;;;26.20;101175.00;;;;2078066;28;20348;-52
2022/08/11 06:25:14;;;;;;;2.00;1.80;;;;;26.20;101169.00;;;;2081084;28;20475;-53
2022/08/11 06:26:15;;;;;;;2.20;2.00;;;;;26.20;101173.00;;;;2086577;28;20697;-52
2022/08/11 06:27:21;;;;;;;2.00;1.80;;;;;26.20;101172.00;;;;2078504;28;20217;-53
2022/08/11 06:28:29;;;;;;;2.87;2.20;;;;;26.20;101163.00;;;;2078673;28;20230;-52
2022/08/11 06:29:30;;;;;;;2.93;1.90;;;;;26.20;101165.00;;;;2078410;28;20448;-53
2022/08/11 06:30:40;;;;;;;2.20;2.00;;;;;26.20;101200.00;;;;2078463;28;20498;-53
2022/08/11 06:31:41;;;;;;;1.90;1.60;;;;;26.20;101172.00;;;;2078508;28;20283;-53
2022/08/11 06:32:43;;;;;;;2.40;2.20;;;;;26.20;101174.00;;;;2078382;28;20456;-52
2022/08/11 06:34:00;;;;;;;2.20;2.00;;;;;26.20;101162.00;;;;2078384;28;20225;-52
2022/08/11 06:35:11;;;;;;;2.30;2.10;;;;;26.20;101170.00;;;;2076848;28;20511;-53
2022/08/11 06:36:15;;;;;;;2.10;1.90;;;;;26.20;101162.00;;;;2080253;28;20614;-52
2022/08/11 06:37:37;;;;;;;2.10;1.90;;;;;26.20;101155.00;;;;2077850;28;20549;-52
2022/08/11 06:38:56;;;;;;;2.30;2.00;;;;;26.20;101165.00;;;;2085095;28;20463;-53
2022/08/11 06:40:06;;;;;;;2.20;2.00;;;;;26.20;101164.00;;;;2078715;28;20452;-53
2022/08/11 06:41:30;;;;;;;2.13;1.93;;;;;26.20;101139.00;;;;2079449;28;20456;-53
2022/08/11 06:42:55;;;;;;;2.00;1.80;;;;;26.20;101159.00;;;;2086193;28;20458;-53
2022/08/11 06:44:11;;;;;;;2.47;2.28;;;;;26.30;101145.00;;;;2075144;28;20463;-53
2022/08/11 06:45:25;;;;;;;2.70;2.20;;;;;26.30;101167.00;;;;2078271;28;20732;-53
2022/08/11 06:46:28;;;;;;;2.17;1.90;;;;;26.30;101162.00;;;;2074283;28;20448;-56
2022/08/11 06:47:29;;;;;;;1.70;1.60;;;;;26.30;101167.00;;;;2075845;28;20476;-53
2022/08/11 06:48:31;;;;;;;2.50;2.00;;;;;26.30;101163.00;;;;2074708;28;20504;-52
2022/08/11 06:51:11;;;;;;;1.73;1.63;;;;;26.30;101163.00;;;;2085876;28;20451;-52
2022/08/11 06:52:16;;;;;;;1.97;1.77;;;;;26.30;101168.00;;;;2086359;28;20467;-52
2022/08/11 06:53:18;;;;;;;2.90;2.07;;;;;26.30;101167.00;;;;2086487;28;20451;-52
2022/08/11 06:54:18;;;;;;;2.10;1.90;;;;;26.30;101170.00;;;;2086219;28;20948;-52
2022/08/11 07:00:39;;;;;;;2.00;1.90;;;;;26.30;101172.00;;;;2066662;28;20456;-52
2022/08/11 07:02:04;;;;;;;1.93;1.73;;;;;26.30;101176.00;;;;2058007;28;20455;-52
2022/08/11 07:03:10;;;;;;;3.20;2.60;;;;;26.30;101172.00;;;;2067604;28;20209;-52
2022/08/11 07:04:11;;;;;;;2.33;2.03;;;;;26.30;101171.00;;;;2062884;28;20481;-52
2022/08/11 07:05:39;;;;;;;2.27;2.07;;;;;26.30;101172.00;;;;2060973;28;20462;-52
2022/08/11 07:15:43;;;;;;;2.40;1.80;;;;;26.30;100918.00;;;;2081110;28;20429;-53
2022/08/11 07:16:44;;;;;;;2.00;1.90;;;;;26.30;101163.00;;;;2071982;28;20449;-53
2022/08/11 07:17:48;;;;;;;1.90;1.80;;;;;26.30;101169.00;;;;2068847;28;20240;-53
2022/08/11 07:29:37;;;;;;;2.50;2.07;;;;;26.30;101167.00;;;;2080323;28;20964;-53
2022/08/11 07:30:39;;;;;;;1.83;1.73;;;;;26.30;101172.00;;;;2080416;28;20515;-53
2022/08/11 07:31:42;;;;;;;2.00;1.80;;;;;26.30;101173.00;;;;2082296;28;20965;-53
2022/08/11 07:32:47;;;;;;;2.30;1.97;;;;;26.30;101040.00;;;;2086169;28;20562;-53
2022/08/11 07:34:03;;;;;;;1.97;1.77;;;;;26.30;101161.00;;;;2085987;28;20502;-53
2022/08/11 07:35:06;;;;;;;1.50;1.40;;;;;26.30;101169.00;;;;2071366;28;20460;-53
2022/08/11 07:36:07;;;;;;;1.67;1.57;;;;;26.30;101134.00;;;;2079073;28;20971;-55
2022/08/11 07:37:11;;;;;;;2.27;2.07;;;;;26.30;101171.00;;;;2069054;28;20484;-53
2022/08/11 07:38:41;;;;;;;1.90;1.80;;;;;26.30;101157.00;;;;2076869;28;20209;-53
2022/08/11 07:39:43;;;;;;;1.93;1.83;;;;;26.30;101160.00;;;;2073476;28;20453;-53
2022/08/11 07:40:45;;;;;;;2.20;1.80;;;;;26.30;101168.00;;;;2081053;28;20454;-53
2022/08/11 07:41:46;;;;;;;2.50;1.80;;;;;26.40;101166.00;;;;2071839;28;20452;-53
2022/08/11 07:42:46;;;;;;;2.30;2.10;;;;;26.30;101135.00;;;;2061742;28;20456;-53
2022/08/11 07:43:49;;;;;;;2.03;1.83;;;;;26.30;101171.00;;;;2069365;28;20465;-53
2022/08/11 07:52:43;;;;;;;1.90;1.80;;;;;26.30;101154.00;;;;2077504;28;20456;-52
2022/08/11 07:53:43;;;;;;;1.97;1.77;;;;;26.30;101147.00;;;;2069688;28;20445;-52
2022/08/11 07:54:43;;;;;;;2.00;1.80;;;;;26.40;101158.00;;;;2061571;28;20206;-53
2022/08/11 07:55:48;;;;;;;1.90;1.80;;;;;26.40;101158.00;;;;2075031;28;20248;-52
2022/08/11 07:56:48;;;;;;;2.17;1.90;;;;;26.40;101159.00;;;;2069433;28;20722;-53
2022/08/11 08:17:56;;;;;;;2.03;1.90;;;;;26.40;101158.00;;;;2085159;28;20546;-53
2022/08/11 08:18:56;;;;;;;4.37;2.33;;;;;26.40;101154.00;;;;2087276;28;20477;-53
2022/08/11 08:19:57;;;;;;;3.10;2.37;;;;;26.40;101155.00;;;;2086730;28;20530;-53
2022/08/11 08:21:10;;;;;;;2.20;2.00;;;;;26.40;101155.00;;;;2078783;28;20209;-53
2022/08/11 08:22:11;;;;;;;1.90;1.70;;;;;26.40;101160.00;;;;2070013;28;20210;-54
2022/08/11 08:23:11;;;;;;;2.13;1.87;;;;;26.40;101157.00;;;;2080749;28;20463;-53
2022/08/11 08:24:11;;;;;;;2.07;1.90;;;;;26.40;101154.00;;;;2086679;28;20592;-53
2022/08/11 08:25:12;;;;;;;2.20;1.87;;;;;26.40;101159.00;;;;2078596;28;20735;-52
2022/08/11 08:27:34;;;;;;;1.70;1.60;;;;;26.40;101146.00;;;;2079981;28;20213;-53
2022/08/11 08:28:34;;;;;;;2.07;1.87;;;;;26.40;101153.00;;;;2067793;28;20457;-53
2022/08/11 08:30:55;;;;;;;1.63;1.53;;;;;26.40;101127.00;;;;2070982;28;20653;-53
2022/08/11 08:31:55;;;;;;;2.10;1.90;;;;;26.40;101158.00;;;;2075670;28;20538;-53
2022/08/11 08:32:57;;;;;;;1.70;1.60;;;;;26.40;101119.00;;;;2070439;28;20205;-53
2022/08/11 08:33:58;;;;;;;1.93;1.77;;;;;26.40;101157.00;;;;2079054;28;20213;-53
2022/08/11 08:34:58;;;;;;;2.00;1.80;;;;;26.40;101159.00;;;;2078943;28;20488;-53
2022/08/11 08:36:14;;;;;;;1.80;1.70;;;;;26.40;101194.00;;;;2087273;28;20209;-53
2022/08/11 08:37:18;;;;;;;2.33;1.80;;;;;26.40;101158.00;;;;2072076;28;20214;-53
2022/08/11 08:38:18;;;;;;;1.90;1.80;;;;;26.40;101155.00;;;;2072120;28;20461;-53
2022/08/11 08:39:20;;;;;;;2.40;2.20;;;;;26.40;101144.00;;;;2071231;28;20864;-53
2022/08/11 08:40:20;;;;;;;2.40;1.80;;;;;26.40;101164.00;;;;2070849;28;20631;-53
2022/08/11 08:41:28;;;;;;;1.90;1.80;;;;;26.40;101161.00;;;;2078956;28;20491;-53
2022/08/11 08:42:30;;;;;;;2.20;1.93;;;;;26.40;101158.00;;;;2074384;28;20238;-53
2022/08/11 08:43:31;;;;;;;2.10;1.90;;;;;26.40;101161.00;;;;2065373;28;20426;-52
2022/08/11 08:44:33;;;;;;;2.17;1.70;;;;;26.40;101134.00;;;;2070816;28;20242;-53
2022/08/11 08:45:34;;;;;;;2.03;1.87;;;;;26.50;101160.00;;;;2069938;28;20228;-53
2022/08/11 08:46:36;;;;;;;1.67;1.57;;;;;26.40;101162.00;;;;2055037;28;20545;-53
2022/08/11 08:47:38;;;;;;;2.13;1.97;;;;;26.50;101162.00;;;;2061849;28;20463;-53
2022/08/11 08:48:38;;;;;;;1.97;1.87;;;;;26.50;101159.00;;;;2070287;28;20872;-53
2022/08/11 08:49:40;;;;;;;3.20;1.90;;;;;26.40;101156.00;;;;2070587;28;20520;-53
2022/08/11 08:52:06;;;;;;;1.90;1.80;;;;;26.50;101139.00;;;;2078734;28;20547;-53
2022/08/11 08:53:07;;;;;;;1.73;1.63;;;;;26.40;101160.00;;;;2075934;28;20440;-53
2022/08/11 08:54:17;;;;;;;2.00;1.90;;;;;26.50;101170.00;;;;2078907;28;20471;-53
2022/08/11 08:55:17;;;;;;;2.20;2.00;;;;;26.40;101159.00;;;;2079861;28;20209;-53
2022/08/11 08:56:18;;;;;;;1.60;1.50;;;;;26.50;101155.00;;;;2087034;28;20797;-53
2022/08/11 08:57:19;;;;;;;2.23;2.03;;;;;26.50;101153.00;;;;2086246;28;20459;-53
2022/08/11 08:58:20;;;;;;;2.10;1.90;;;;;26.50;101163.00;;;;2086772;28;20636;-53
2022/08/11 08:59:21;;;;;;;1.90;1.80;;;;;26.50;101125.00;;;;2086881;28;20455;-53
2022/08/11 09:00:21;;;;;;;2.40;2.10;;;;;26.50;101150.00;;;;2086745;28;20367;-53
2022/08/11 09:01:22;;;;;;;1.70;1.60;;;;;26.50;101152.00;;;;2087016;28;21378;-52
2022/08/11 09:02:25;;;;;;;2.40;2.20;;;;;26.50;101167.00;;;;2078034;28;20218;-52
2022/08/11 09:03:26;;;;;;;1.83;1.73;;;;;26.40;101165.00;;;;2078988;28;20236;-53
2022/08/11 09:04:27;;;;;;;2.27;1.77;;;;;26.50;101162.00;;;;2087005;28;20475;-53
2022/08/11 09:05:28;;;;;;;1.70;1.60;;;;;26.50;101163.00;;;;2087023;28;20452;-53
2022/08/11 09:06:31;;;;;;;1.63;1.53;;;;;26.50;101162.00;;;;2087253;28;20813;-53
2022/08/11 09:07:32;;;;;;;1.87;1.77;;;;;26.50;101171.00;;;;2086013;28;20217;-52
2022/08/11 09:08:33;;;;;;;4.70;2.00;;;;;26.50;101166.00;;;;2086607;28;20451;-52
2022/08/11 09:09:34;;;;;;;2.00;1.90;;;;;26.50;101160.00;;;;2086814;28;20451;-52
2022/08/11 09:10:34;;;;;;;2.10;1.90;;;;;26.50;101163.00;;;;2072253;28;20545;-53
2022/08/11 09:11:52;;;;;;;1.50;1.40;;;;;26.50;101147.00;;;;2070715;28;20222;-53
2022/08/11 09:12:52;;;;;;;1.80;1.70;;;;;26.50;101157.00;;;;2064318;28;20588;-53
2022/08/11 09:13:52;;;;;;;1.73;1.63;;;;;26.50;101155.00;;;;2066762;28;20474;-53
2022/08/11 09:15:06;;;;;;;1.70;1.60;;;;;26.50;101157.00;;;;2070566;28;20268;-53
2022/08/11 09:16:07;;;;;;;2.10;2.00;;;;;26.50;101156.00;;;;2080248;28;20665;-53
2022/08/11 09:17:07;;;;;;;2.03;1.93;;;;;26.50;101158.00;;;;2080366;28;20472;-53
2022/08/11 09:18:09;;;;;;;1.80;1.70;;;;;26.50;101157.00;;;;2085772;28;20212;-53
2022/08/11 09:19:10;;;;;;;1.83;1.73;;;;;26.50;101157.00;;;;2087045;28;20713;-53
2022/08/11 09:20:12;;;;;;;1.60;1.50;;;;;26.50;101159.00;;;;2070541;28;20450;-53
2022/08/11 09:21:13;;;;;;;1.70;1.60;;;;;26.50;101158.00;;;;2078946;28;20781;-53
2022/08/11 09:27:35;;;;;;;1.90;1.70;;;;;26.50;101117.00;;;;2082272;28;20962;-53
2022/08/11 09:28:35;;;;;;;1.60;1.50;;;;;26.50;101152.00;;;;2086797;28;20444;-53
2022/08/11 09:29:36;;;;;;;1.80;1.70;;;;;26.50;101159.00;;;;2078461;28;20210;-53
2022/08/11 09:30:36;;;;;;;2.13;2.03;;;;;26.50;101154.00;;;;2078313;28;20220;-54
2022/08/11 09:31:36;;;;;;;1.87;1.77;;;;;26.50;101158.00;;;;2070522;28;20214;-53
2022/08/11 09:32:37;;;;;;;1.93;1.83;;;;;26.50;101152.00;;;;2078310;28;20734;-53
2022/08/11 09:33:38;;;;;;;1.97;1.87;;;;;26.50;101146.00;;;;2078489;28;20400;-53
2022/08/11 09:34:38;;;;;;;1.50;1.40;;;;;26.50;101153.00;;;;2086715;28;20502;-53
2022/08/11 09:35:41;;;;;;;1.83;1.73;;;;;26.50;101149.00;;;;2086767;28;20221;-53
2022/08/11 09:40:43;;;;;;;1.43;1.33;;;;;26.50;101149.00;;;;2082690;28;20467;-53
2022/08/11 09:41:43;;;;;;;2.00;1.70;;;;;26.50;101158.00;;;;2083333;28;20468;-52
2022/08/11 09:45:21;;;;;;;1.70;1.60;;;;;26.50;101146.00;;;;2078510;28;20500;-53
2022/08/11 09:46:26;;;;;;;2.03;1.67;;;;;26.50;101140.00;;;;2078634;28;20457;-53
2022/08/11 09:47:27;;;;;;;1.57;1.47;;;;;26.50;101107.00;;;;2068660;28;20309;-53
2022/08/11 09:48:41;;;;;;;1.87;1.77;;;;;26.50;101118.00;;;;2078558;28;21027;-53
2022/08/11 09:49:44;;;;;;;1.80;1.70;;;;;26.50;101134.00;;;;2082979;28;20459;-52